createdAt,value
2019-05-20T00:02:23.190Z,97610.28
2019-05-20T00:04:40.983Z,97610.75
2019-05-20T00:07:09.467Z,97617.80
2019-05-20T00:09:37.984Z,97616.70
2019-05-20T00:12:06.467Z,97614.81
2019-05-20T00:14:34.966Z,97613.74
2019-05-20T00:17:03.448Z,97619.34
2019-05-20T00:19:31.958Z,97621.74
2019-05-20T00:22:00.438Z,97621.98
2019-05-20T00:24:28.956Z,97624.88
2019-05-20T00:26:57.434Z,97620.52
2019-05-20T00:29:25.938Z,97618.97
2019-05-20T00:31:54.417Z,97611.11
2019-05-20T00:34:34.788Z,97615.61
2019-05-20T00:36:53.123Z,97617.70
2019-05-20T00:39:21.633Z,97620.08
2019-05-20T00:41:50.115Z,97614.53
2019-05-20T00:44:19.066Z,97618.52
2019-05-20T00:46:47.547Z,97617.52
2019-05-20T00:49:16.746Z,97612.48
2019-05-20T00:51:45.473Z,97615.94
2019-05-20T00:54:14.099Z,97611.98
2019-05-20T00:56:42.671Z,97614.11
2019-05-20T00:59:11.521Z,97611.72
2019-05-20T01:01:40.030Z,97610.15
2019-05-20T01:04:08.534Z,97604.34
2019-05-20T01:06:37.029Z,97593.80
2019-05-20T01:09:07.880Z,97586.64
2019-05-20T01:11:36.386Z,97586.34
2019-05-20T01:14:05.536Z,97583.70
2019-05-20T01:16:34.082Z,97583.95
2019-05-20T01:19:02.657Z,97589.16
2019-05-20T01:21:31.147Z,97588.59
2019-05-20T01:23:59.657Z,97586.44
2019-05-20T01:26:28.167Z,97581.41
2019-05-20T01:28:56.656Z,97586.66
2019-05-20T01:31:25.449Z,97583.19
2019-05-20T01:33:54.133Z,97578.14
2019-05-20T01:36:22.644Z,97581.83
2019-05-20T01:38:51.136Z,97585.48
2019-05-20T01:41:19.662Z,97585.45
2019-05-20T01:43:48.723Z,97584.59
2019-05-20T01:46:17.299Z,97584.78
2019-05-20T01:48:46.068Z,97578.45
2019-05-20T01:51:14.587Z,97584.22
2019-05-20T01:53:43.113Z,97585.45
2019-05-20T01:56:11.779Z,97580.45
2019-05-20T01:58:40.334Z,97577.53
2019-05-20T02:01:08.999Z,97580.66
2019-05-20T02:03:37.477Z,97577.53
2019-05-20T02:06:06.126Z,97570.91
2019-05-20T02:08:34.622Z,97566.73
2019-05-20T02:13:56.486Z,97554.63
2019-05-20T02:16:34.387Z,97552.42
2019-05-20T02:24:56.254Z,97541.00
2019-05-20T02:27:24.833Z,97540.94
2019-05-20T02:29:53.301Z,97538.42
2019-05-20T02:32:32.525Z,97537.64
2019-05-20T02:35:03.535Z,97543.70
2019-05-20T02:37:32.044Z,97534.22
2019-05-20T02:40:07.709Z,97537.86
2019-05-20T02:42:38.049Z,97538.38
2019-05-20T02:45:08.171Z,97541.01
2019-05-20T02:47:55.062Z,97547.98
2019-05-20T02:50:11.605Z,97553.30
2019-05-20T02:52:40.219Z,97555.70
2019-05-20T02:55:09.237Z,97556.53
2019-05-20T02:57:37.748Z,97555.23
2019-05-20T03:00:07.788Z,97555.97
2019-05-20T03:02:36.301Z,97554.20
2019-05-20T03:05:06.090Z,97556.03
2019-05-20T03:07:34.609Z,97553.23
2019-05-20T03:10:03.105Z,97550.37
2019-05-20T03:12:31.618Z,97549.45
2019-05-20T03:15:00.110Z,97547.17
2019-05-20T03:17:28.675Z,97543.77
2019-05-20T03:19:57.166Z,97549.41
2019-05-20T03:22:25.689Z,97549.06
2019-05-20T03:24:54.179Z,97550.70
2019-05-20T03:27:22.693Z,97549.06
2019-05-20T03:29:51.229Z,97554.19
2019-05-20T03:32:19.741Z,97551.05
2019-05-20T03:34:58.802Z,97545.92
2019-05-20T03:37:18.518Z,97534.44
2019-05-20T03:39:46.991Z,97537.00
2019-05-20T03:42:15.499Z,97536.08
2019-05-20T03:44:43.989Z,97524.92
2019-05-20T03:47:12.497Z,97530.05
2019-05-20T03:49:40.982Z,97528.53
2019-05-20T03:52:09.498Z,97530.63
2019-05-20T03:54:37.999Z,97531.77
2019-05-20T03:57:06.504Z,97525.49
2019-05-20T03:59:34.996Z,97524.20
2019-05-20T04:02:03.579Z,97519.53
2019-05-20T04:04:32.066Z,97511.56
2019-05-20T04:07:00.568Z,97503.50
2019-05-20T04:09:29.057Z,97511.47
2019-05-20T04:11:57.581Z,97509.17
2019-05-20T04:14:26.094Z,97509.70
2019-05-20T04:16:54.585Z,97511.03
2019-05-20T04:19:23.119Z,97506.55
2019-05-20T04:21:51.632Z,97504.98
2019-05-20T04:24:20.186Z,97496.56
2019-05-20T04:26:51.744Z,97497.95
2019-05-20T04:29:20.230Z,97501.18
2019-05-20T04:31:49.012Z,97499.92
2019-05-20T04:34:17.497Z,97509.41
2019-05-20T04:36:45.988Z,97506.02
2019-05-20T04:39:14.497Z,97506.30
2019-05-20T04:41:42.987Z,97496.82
2019-05-20T04:44:11.491Z,97498.70
2019-05-20T04:46:40.112Z,97495.27
2019-05-20T04:49:08.619Z,97495.80
2019-05-20T04:51:37.108Z,97504.75
2019-05-20T04:54:05.623Z,97498.42
2019-05-20T04:56:34.116Z,97503.14
2019-05-20T04:59:02.662Z,97504.19
2019-05-20T05:01:31.279Z,97498.55
2019-05-20T05:03:59.790Z,97492.59
2019-05-20T05:06:28.286Z,97485.99
2019-05-20T05:08:56.792Z,97485.19
2019-05-20T05:11:25.417Z,97484.45
2019-05-20T05:13:54.158Z,97485.72
2019-05-20T05:16:23.578Z,97485.84
2019-05-20T05:18:52.093Z,97495.48
2019-05-20T05:21:20.581Z,97486.13
2019-05-20T05:23:58.762Z,97493.06
2019-05-20T05:26:19.378Z,97486.41
2019-05-20T05:28:47.955Z,97489.86
2019-05-20T05:31:16.439Z,97493.86
2019-05-20T05:33:45.015Z,97489.09
2019-05-20T05:36:13.507Z,97479.96
2019-05-20T05:38:42.032Z,97481.56
2019-05-20T05:41:10.528Z,97487.23
2019-05-20T05:43:39.040Z,97485.27
2019-05-20T05:46:07.535Z,97481.61
2019-05-20T05:48:36.046Z,97477.47
2019-05-20T05:51:04.545Z,97477.76
2019-05-20T05:53:33.062Z,97479.85
2019-05-20T05:56:01.565Z,97482.77
2019-05-20T05:58:30.077Z,97477.03
2019-05-20T06:00:58.563Z,97470.27
2019-05-20T06:03:27.092Z,97472.84
2019-05-20T06:06:10.677Z,97476.02
2019-05-20T06:08:25.798Z,97480.42
2019-05-20T06:10:54.280Z,97478.65
2019-05-20T06:13:22.792Z,97476.52
2019-05-20T06:15:54.515Z,97468.65
2019-05-20T06:18:21.703Z,97462.66
2019-05-20T06:20:50.214Z,97463.67
2019-05-20T06:23:18.697Z,97470.25
2019-05-20T06:25:47.212Z,97471.20
2019-05-20T06:28:15.701Z,97473.69
2019-05-20T06:30:45.151Z,97474.66
2019-05-20T06:33:13.656Z,97481.13
2019-05-20T06:35:42.388Z,97474.12
2019-05-20T06:38:12.652Z,97469.78
2019-05-20T06:40:41.720Z,97473.86
2019-05-20T06:43:10.200Z,97465.37
2019-05-20T06:45:38.704Z,97473.78
2019-05-20T06:48:07.318Z,97472.68
2019-05-20T06:50:35.933Z,97464.88
2019-05-20T06:53:04.402Z,97465.62
2019-05-20T06:55:32.916Z,97470.20
2019-05-20T06:58:01.394Z,97473.48
2019-05-20T07:00:34.747Z,97482.83
2019-05-20T07:03:04.174Z,97480.22
2019-05-20T07:05:32.758Z,97474.84
2019-05-20T07:08:01.563Z,97483.11
2019-05-20T07:10:30.268Z,97478.84
2019-05-20T07:12:58.750Z,97480.84
2019-05-20T07:15:27.266Z,97481.77
2019-05-20T07:17:55.752Z,97471.11
2019-05-20T07:20:24.253Z,97480.75
2019-05-20T07:22:56.109Z,97473.26
2019-05-20T07:25:23.002Z,97482.00
2019-05-20T07:27:51.475Z,97475.56
2019-05-20T07:30:20.151Z,97479.41
2019-05-20T07:32:48.637Z,97479.75
2019-05-20T07:35:29.448Z,97494.00
2019-05-20T07:37:47.374Z,97482.95
2019-05-20T07:40:18.959Z,97476.02
2019-05-20T07:42:47.420Z,97477.45
2019-05-20T07:45:15.999Z,97480.55
2019-05-20T07:47:44.546Z,97477.02
2019-05-20T07:50:13.490Z,97477.95
2019-05-20T07:52:42.141Z,97484.95
2019-05-20T07:55:10.800Z,97491.34
2019-05-20T07:57:42.086Z,97495.63
2019-05-20T08:00:11.285Z,97494.90
2019-05-20T08:02:40.097Z,97496.44
2019-05-20T08:05:09.186Z,97491.66
2019-05-20T08:07:51.127Z,97484.91
2019-05-20T08:10:08.310Z,97493.86
2019-05-20T08:12:36.820Z,97489.69
2019-05-20T08:15:08.737Z,97487.23
2019-05-20T08:17:37.355Z,97490.88
2019-05-20T08:20:07.045Z,97491.73
2019-05-20T08:22:35.558Z,97488.97
2019-05-20T08:25:06.691Z,97481.65
2019-05-20T08:27:35.590Z,97483.21
2019-05-20T08:30:07.054Z,97480.97
2019-05-20T08:32:35.553Z,97483.78
2019-05-20T08:35:05.816Z,97489.39
2019-05-20T08:37:44.720Z,97482.27
2019-05-20T08:40:05.645Z,97487.65
2019-05-20T08:42:34.234Z,97490.09
2019-05-20T08:45:03.401Z,97487.91
2019-05-20T08:47:33.066Z,97488.86
2019-05-20T08:50:03.868Z,97482.39
2019-05-20T08:52:31.884Z,97482.69
2019-05-20T08:55:00.409Z,97480.00
2019-05-20T08:57:28.936Z,97478.20
2019-05-20T08:59:57.493Z,97473.95
2019-05-20T09:02:25.993Z,97473.56
2019-05-20T09:04:54.497Z,97474.59
2019-05-20T09:07:23.051Z,97473.16
2019-05-20T09:09:51.780Z,97480.66
2019-05-20T09:12:20.295Z,97479.45
2019-05-20T09:14:48.790Z,97475.17
2019-05-20T09:17:17.326Z,97474.00
2019-05-20T09:19:47.054Z,97469.80
2019-05-20T09:22:15.804Z,97470.20
2019-05-20T09:24:44.986Z,97467.81
2019-05-20T09:27:13.615Z,97462.83
2019-05-20T09:29:42.110Z,97448.48
2019-05-20T09:32:10.617Z,97452.58
2019-05-20T09:34:39.119Z,97442.70
2019-05-20T09:37:07.668Z,97443.19
2019-05-20T09:39:36.168Z,97442.73
2019-05-20T09:42:04.759Z,97442.30
2019-05-20T09:44:33.239Z,97438.59
2019-05-20T09:47:01.764Z,97443.73
2019-05-20T09:49:30.285Z,97436.30
2019-05-20T09:51:58.821Z,97443.73
2019-05-20T09:54:27.292Z,97438.27
2019-05-20T09:56:55.809Z,97432.19
2019-05-20T09:59:24.306Z,97437.49
2019-05-20T10:01:52.822Z,97433.08
2019-05-20T10:04:21.318Z,97436.56
2019-05-20T10:06:49.896Z,97446.45
2019-05-20T10:09:18.371Z,97445.36
2019-05-20T10:11:46.896Z,97447.06
2019-05-20T10:14:15.380Z,97445.46
2019-05-20T10:16:43.907Z,97432.95
2019-05-20T10:19:12.389Z,97437.00
2019-05-20T10:21:40.892Z,97433.59
2019-05-20T10:24:09.381Z,97422.44
2019-05-20T10:26:37.963Z,97417.56
2019-05-20T10:29:06.447Z,97426.92
2019-05-20T10:31:34.962Z,97425.00
2019-05-20T10:34:03.433Z,97434.59
2019-05-20T10:36:31.945Z,97436.97
2019-05-20T10:39:00.510Z,97437.09
2019-05-20T10:41:29.749Z,97436.18
2019-05-20T10:43:58.274Z,97438.72
2019-05-20T10:46:26.747Z,97452.61
2019-05-20T10:48:55.248Z,97452.94
2019-05-20T10:51:23.735Z,97451.77
2019-05-20T10:53:52.243Z,97448.51
2019-05-20T10:56:20.724Z,97442.57
2019-05-20T10:58:49.230Z,97445.13
2019-05-20T11:01:17.740Z,97457.09
2019-05-20T11:03:46.244Z,97454.77
2019-05-20T11:06:15.073Z,97454.20
2019-05-20T11:08:43.586Z,97460.84
2019-05-20T11:11:14.249Z,97456.20
2019-05-20T11:13:42.454Z,97460.98
2019-05-20T11:16:10.932Z,97454.20
2019-05-20T11:18:39.446Z,97451.91
2019-05-20T11:21:07.959Z,97450.33
2019-05-20T11:23:36.529Z,97453.11
2019-05-20T11:26:05.059Z,97445.91
2019-05-20T11:28:33.572Z,97443.45
2019-05-20T11:31:02.051Z,97442.70
2019-05-20T11:33:30.557Z,97437.02
2019-05-20T11:35:59.037Z,97439.61
2019-05-20T11:38:27.544Z,97445.48
2019-05-20T11:40:56.022Z,97447.88
2019-05-20T11:43:24.533Z,97447.32
2019-05-20T11:45:53.083Z,97460.95
2019-05-20T11:48:21.599Z,97453.95
2019-05-20T11:50:50.080Z,97450.58
2019-05-20T11:53:18.665Z,97448.89
2019-05-20T11:55:47.149Z,97451.28
2019-05-20T11:58:16.598Z,97449.61
2019-05-20T12:00:45.244Z,97448.77
2019-05-20T12:03:13.797Z,97448.98
2019-05-20T12:05:42.387Z,97442.36
2019-05-20T12:08:10.893Z,97445.33
2019-05-20T12:10:39.405Z,97438.69
2019-05-20T12:13:07.915Z,97442.95
2019-05-20T12:15:36.401Z,97441.98
2019-05-20T12:18:04.986Z,97432.70
2019-05-20T12:20:33.534Z,97424.34
2019-05-20T12:23:02.060Z,97428.55
2019-05-20T12:25:30.544Z,97431.25
2019-05-20T12:27:59.056Z,97436.88
2019-05-20T12:30:27.558Z,97433.24
2019-05-20T12:33:17.361Z,97443.13
2019-05-20T12:35:26.253Z,97437.09
2019-05-20T12:37:54.719Z,97441.97
2019-05-20T12:40:23.980Z,97439.10
2019-05-20T12:42:52.453Z,97439.52
2019-05-20T12:45:21.113Z,97434.41
2019-05-20T12:47:49.583Z,97441.82
2019-05-20T12:50:18.164Z,97445.35
2019-05-20T12:52:46.626Z,97441.95
2019-05-20T12:55:15.470Z,97448.03
2019-05-20T12:57:43.949Z,97438.66
2019-05-20T13:00:14.263Z,97441.83
2019-05-20T13:02:42.827Z,97431.70
2019-05-20T13:05:11.965Z,97433.64
2019-05-20T13:07:40.445Z,97435.34
2019-05-20T13:10:26.799Z,97434.56
2019-05-20T13:12:39.677Z,97433.95
2019-05-20T13:15:09.012Z,97433.06
2019-05-20T13:17:42.876Z,97433.64
2019-05-20T13:20:08.277Z,97432.45
2019-05-20T13:22:37.529Z,97445.33
2019-05-20T13:25:09.038Z,97439.47
2019-05-20T13:27:37.513Z,97433.27
2019-05-20T13:30:08.929Z,97432.87
2019-05-20T13:32:37.402Z,97428.25
2019-05-20T13:35:09.256Z,97426.77
2019-05-20T13:37:37.995Z,97426.38
2019-05-20T13:40:07.237Z,97425.44
2019-05-20T13:42:35.707Z,97424.27
2019-05-20T13:45:05.641Z,97433.45
2019-05-20T13:47:34.120Z,97429.28
2019-05-20T13:50:02.805Z,97437.71
2019-05-20T13:52:31.275Z,97439.09
2019-05-20T13:54:59.857Z,97431.89
2019-05-20T13:57:28.328Z,97417.63
2019-05-20T13:59:56.829Z,97422.19
2019-05-20T14:02:25.304Z,97419.81
2019-05-20T14:04:53.812Z,97417.61
2019-05-20T14:07:22.288Z,97422.78
2019-05-20T14:09:50.794Z,97425.61
2019-05-20T14:12:19.265Z,97423.98
2019-05-20T14:14:47.771Z,97422.11
2019-05-20T14:17:16.260Z,97417.22
2019-05-20T14:19:44.838Z,97423.20
2019-05-20T14:22:13.318Z,97426.89
2019-05-20T14:24:41.819Z,97425.27
2019-05-20T14:27:10.299Z,97422.53
2019-05-20T14:29:38.803Z,97425.12
2019-05-20T14:32:07.270Z,97423.26
2019-05-20T14:34:35.779Z,97428.26
2019-05-20T14:37:04.251Z,97437.53
2019-05-20T14:39:32.746Z,97427.91
2019-05-20T14:42:01.219Z,97422.72
2019-05-20T14:44:29.722Z,97425.20
2019-05-20T14:46:58.197Z,97424.68
2019-05-20T14:49:26.770Z,97417.69
2019-05-20T14:51:55.436Z,97415.27
2019-05-20T14:54:23.909Z,97416.32
2019-05-20T14:56:52.425Z,97417.72
2019-05-20T14:59:20.895Z,97429.33
2019-05-20T15:01:49.427Z,97421.73
2019-05-20T15:04:17.896Z,97418.22
2019-05-20T15:06:46.392Z,97423.34
2019-05-20T15:09:14.888Z,97407.47
2019-05-20T15:11:43.385Z,97414.09
2019-05-20T15:14:11.862Z,97416.34
2019-05-20T15:16:40.369Z,97423.52
2019-05-20T15:19:08.849Z,97419.72
2019-05-20T15:21:37.369Z,97423.67
2019-05-20T15:24:05.949Z,97424.71
2019-05-20T15:26:34.454Z,97424.33
2019-05-20T15:29:04.339Z,97417.37
2019-05-20T15:31:33.355Z,97426.37
2019-05-20T15:34:01.883Z,97420.83
2019-05-20T15:36:30.385Z,97427.65
2019-05-20T15:38:58.875Z,97421.12
2019-05-20T15:41:27.379Z,97431.66
2019-05-20T15:43:55.850Z,97431.09
2019-05-20T15:46:25.876Z,97438.57
2019-05-20T15:48:54.368Z,97436.28
2019-05-20T15:51:22.886Z,97433.38
2019-05-20T15:53:51.357Z,97436.53
2019-05-20T15:56:19.883Z,97433.59
2019-05-20T15:58:48.434Z,97428.59
2019-05-20T16:01:16.997Z,97430.41
2019-05-20T16:03:45.473Z,97432.59
2019-05-20T16:06:13.979Z,97421.18
2019-05-20T16:08:42.449Z,97424.91
2019-05-20T16:11:10.961Z,97418.72
2019-05-20T16:13:39.444Z,97428.60
2019-05-20T16:16:07.924Z,97435.23
2019-05-20T16:18:36.438Z,97436.38
2019-05-20T16:21:04.989Z,97449.31
2019-05-20T16:23:33.497Z,97450.92
2019-05-20T16:26:01.997Z,97455.20
2019-05-20T16:28:30.511Z,97462.31
2019-05-20T16:30:58.985Z,97462.27
2019-05-20T16:33:27.575Z,97467.48
2019-05-20T16:35:56.090Z,97463.67
2019-05-20T16:38:24.562Z,97472.52
2019-05-20T16:40:53.044Z,97473.63
2019-05-20T16:43:21.554Z,97468.57
2019-05-20T16:45:50.039Z,97474.27
2019-05-20T16:48:18.547Z,97478.33
2019-05-20T16:50:47.027Z,97471.45
2019-05-20T16:53:15.549Z,97471.36
2019-05-20T16:55:44.103Z,97473.42
2019-05-20T16:58:12.601Z,97476.67
2019-05-20T17:00:41.560Z,97468.16
2019-05-20T17:03:10.092Z,97458.36
2019-05-20T17:05:38.906Z,97457.24
2019-05-20T17:08:07.589Z,97461.26
2019-05-20T17:10:36.071Z,97460.86
2019-05-20T17:13:04.804Z,97466.02
2019-05-20T17:15:33.302Z,97473.05
2019-05-20T17:18:01.795Z,97474.22
2019-05-20T17:20:30.347Z,97470.80
2019-05-20T17:22:58.850Z,97475.58
2019-05-20T17:25:27.367Z,97475.84
2019-05-20T17:27:55.838Z,97478.36
2019-05-20T17:30:24.325Z,97481.38
2019-05-20T17:32:52.823Z,97480.15
2019-05-20T17:35:21.561Z,97468.69
2019-05-20T17:37:50.137Z,97466.62
2019-05-20T17:40:19.464Z,97464.80
2019-05-20T17:42:48.028Z,97456.11
2019-05-20T17:45:17.541Z,97454.06
2019-05-20T17:47:46.032Z,97449.55
2019-05-20T17:50:17.059Z,97439.91
2019-05-20T17:52:45.541Z,97427.86
2019-05-20T17:55:14.405Z,97434.72
2019-05-20T17:57:42.891Z,97429.28
2019-05-20T18:00:18.625Z,97430.85
2019-05-20T18:02:47.089Z,97426.59
2019-05-20T18:05:15.731Z,97427.89
2019-05-20T18:07:44.276Z,97424.73
2019-05-20T18:10:13.009Z,97429.75
2019-05-20T18:12:41.495Z,97431.91
2019-05-20T18:15:10.307Z,97430.45
2019-05-20T18:17:38.783Z,97434.95
2019-05-20T18:20:07.523Z,97428.25
2019-05-20T18:22:36.068Z,97430.06
2019-05-20T18:25:08.486Z,97435.99
2019-05-20T18:27:36.970Z,97428.72
2019-05-20T18:30:07.947Z,97432.39
2019-05-20T18:32:38.487Z,97432.26
2019-05-20T18:35:07.072Z,97431.59
2019-05-20T18:37:35.559Z,97429.59
2019-05-20T18:40:13.826Z,97440.24
2019-05-20T18:42:35.581Z,97450.16
2019-05-20T18:45:06.140Z,97451.72
2019-05-20T18:47:34.685Z,97448.06
2019-05-20T18:50:04.461Z,97448.45
2019-05-20T18:52:33.005Z,97456.28
2019-05-20T18:55:01.517Z,97466.38
2019-05-20T18:57:29.998Z,97468.23
2019-05-20T18:59:58.536Z,97471.53
2019-05-20T19:02:26.988Z,97487.41
2019-05-20T19:04:55.510Z,97494.36
2019-05-20T19:07:23.978Z,97493.98
2019-05-20T19:09:52.489Z,97492.38
2019-05-20T19:12:20.968Z,97496.41
2019-05-20T19:14:49.459Z,97491.70
2019-05-20T19:17:17.988Z,97497.91
2019-05-20T19:19:46.579Z,97497.74
2019-05-20T19:22:15.054Z,97500.77
2019-05-20T19:24:43.550Z,97504.89
2019-05-20T19:27:12.103Z,97500.53
2019-05-20T19:29:40.634Z,97508.02
2019-05-20T19:32:09.771Z,97508.89
2019-05-20T19:34:38.284Z,97514.17
2019-05-20T19:37:06.751Z,97510.81
2019-05-20T19:39:35.255Z,97513.45
2019-05-20T19:42:03.740Z,97509.51
2019-05-20T19:44:32.238Z,97512.97
2019-05-20T19:47:00.712Z,97516.16
2019-05-20T19:49:29.213Z,97509.88
2019-05-20T19:51:57.719Z,97513.05
2019-05-20T19:54:26.206Z,97512.55
2019-05-20T19:56:54.713Z,97502.05
2019-05-20T19:59:23.192Z,97497.59
2019-05-20T20:01:51.709Z,97498.11
2019-05-20T20:04:20.190Z,97501.28
2019-05-20T20:06:48.701Z,97498.69
2019-05-20T20:09:18.825Z,97501.58
2019-05-20T20:11:47.337Z,97489.20
2019-05-20T20:14:15.822Z,97493.93
2019-05-20T20:16:44.327Z,97488.13
2019-05-20T20:19:12.805Z,97490.54
2019-05-20T20:21:41.308Z,97481.05
2019-05-20T20:24:09.949Z,97473.66
2019-05-20T20:26:38.448Z,97481.83
2019-05-20T20:29:06.928Z,97490.80
2019-05-20T20:31:35.430Z,97478.96
2019-05-20T20:34:04.267Z,97482.12
2019-05-20T20:36:32.770Z,97487.90
2019-05-20T20:39:01.246Z,97488.98
2019-05-20T20:41:29.764Z,97490.28
2019-05-20T20:43:58.240Z,97479.21
2019-05-20T20:46:27.030Z,97473.18
2019-05-20T20:48:55.518Z,97468.42
2019-05-20T20:51:24.033Z,97468.94
2019-05-20T20:53:52.514Z,97473.18
2019-05-20T20:56:25.066Z,97479.50
2019-05-20T20:58:51.352Z,97485.02
2019-05-20T21:01:19.836Z,97480.27
2019-05-20T21:03:48.317Z,97490.55
2019-05-20T21:06:16.820Z,97492.61
2019-05-20T21:08:45.294Z,97489.98
2019-05-20T21:11:13.799Z,97482.09
2019-05-20T21:13:42.290Z,97474.17
2019-05-20T21:16:10.790Z,97468.14
2019-05-20T21:18:39.340Z,97471.83
2019-05-20T21:21:07.874Z,97472.88
2019-05-20T21:23:38.093Z,97481.31
2019-05-20T21:26:06.717Z,97478.44
2019-05-20T21:28:35.196Z,97471.56
2019-05-20T21:31:03.696Z,97475.21
2019-05-20T21:33:32.215Z,97473.31
2019-05-20T21:36:00.684Z,97484.33
2019-05-20T21:38:29.158Z,97489.03
2019-05-20T21:40:57.698Z,97493.85
2019-05-20T21:43:26.160Z,97490.92
2019-05-20T21:45:54.664Z,97481.64
2019-05-20T21:48:23.336Z,97481.31
2019-05-20T21:50:51.840Z,97482.09
2019-05-20T21:53:22.290Z,97488.70
2019-05-20T21:55:50.747Z,97491.86
2019-05-20T21:58:19.257Z,97491.39
2019-05-20T22:00:54.558Z,97495.91
2019-05-20T22:03:24.903Z,97481.19
2019-05-20T22:05:53.457Z,97494.41
2019-05-20T22:08:21.952Z,97494.39
2019-05-20T22:10:50.426Z,97493.05
2019-05-20T22:13:18.948Z,97488.36
2019-05-20T22:15:47.432Z,97488.64
2019-05-20T22:18:15.929Z,97491.33
2019-05-20T22:20:44.397Z,97491.06
2019-05-20T22:23:16.955Z,97489.50
2019-05-20T22:25:47.150Z,97487.13
2019-05-20T22:28:15.636Z,97490.01
2019-05-20T22:30:44.184Z,97490.55
2019-05-20T22:33:12.728Z,97482.63
2019-05-20T22:35:41.233Z,97478.39
2019-05-20T22:38:09.724Z,97489.47
2019-05-20T22:40:38.221Z,97483.66
2019-05-20T22:43:06.704Z,97483.42
2019-05-20T22:45:35.847Z,97487.38
2019-05-20T22:48:04.342Z,97479.20
2019-05-20T22:50:32.813Z,97476.28
2019-05-20T22:53:01.316Z,97481.31
2019-05-20T22:55:29.787Z,97478.41
2019-05-20T22:57:58.291Z,97491.56
2019-05-20T23:00:26.760Z,97495.77
2019-05-20T23:02:55.277Z,97491.80
2019-05-20T23:05:23.741Z,97482.03
2019-05-20T23:07:52.237Z,97487.23
2019-05-20T23:10:20.788Z,97491.98
2019-05-20T23:12:49.290Z,97478.58
2019-05-20T23:15:17.767Z,97477.77
2019-05-20T23:17:46.262Z,97468.31
2019-05-20T23:20:14.889Z,97464.85
2019-05-20T23:22:43.391Z,97466.40
2019-05-20T23:25:12.037Z,97473.98
2019-05-20T23:27:40.548Z,97480.80
2019-05-20T23:30:09.454Z,97493.90
2019-05-20T23:32:37.957Z,97494.57
2019-05-20T23:35:07.175Z,97490.43
2019-05-20T23:37:35.746Z,97496.20
2019-05-20T23:40:06.263Z,97503.19
2019-05-20T23:42:34.773Z,97497.67
2019-05-20T23:45:04.890Z,97502.09
2019-05-20T23:47:33.373Z,97503.87
2019-05-20T23:50:01.945Z,97505.95
2019-05-20T23:52:30.428Z,97511.95
2019-05-20T23:54:58.933Z,97513.98
2019-05-20T23:57:27.479Z,97515.47
2019-05-20T23:59:55.981Z,97516.32
